sensor_id;sensor_type;location;lat;lon;timestamp;P1;durP1;ratioP1;P2;durP2;ratioP2
77597;SDS011;66756;42.774;23.354;2023-07-02T00:00:23;7.38;;;3.72;;
77597;SDS011;66756;42.774;23.354;2023-07-02T00:02:49;6.72;;;2.83;;
77597;SDS011;66756;42.774;23.354;2023-07-02T00:05:15;6.35;;;3.15;;
77597;SDS011;66756;42.774;23.354;2023-07-02T00:07:42;7.43;;;2.47;;
77597;SDS011;66756;42.774;23.354;2023-07-02T00:10:08;6.60;;;2.85;;
77597;SDS011;66756;42.774;23.354;2023-07-02T00:12:35;6.80;;;3.00;;
77597;SDS011;66756;42.774;23.354;2023-07-02T00:15:02;5.80;;;2.58;;
77597;SDS011;66756;42.774;23.354;2023-07-02T00:17:28;6.22;;;2.60;;
77597;SDS011;66756;42.774;23.354;2023-07-02T00:19:54;7.03;;;2.67;;
77597;SDS011;66756;42.774;23.354;2023-07-02T00:22:20;6.88;;;2.83;;
77597;SDS011;66756;42.774;23.354;2023-07-02T00:24:46;9.88;;;2.88;;
77597;SDS011;66756;42.774;23.354;2023-07-02T00:27:12;6.13;;;2.90;;
77597;SDS011;66756;42.774;23.354;2023-07-02T00:29:39;10.73;;;3.05;;
77597;SDS011;66756;42.774;23.354;2023-07-02T00:32:05;8.90;;;2.72;;
77597;SDS011;66756;42.774;23.354;2023-07-02T00:34:31;11.35;;;2.80;;
77597;SDS011;66756;42.774;23.354;2023-07-02T00:36:57;11.73;;;3.15;;
77597;SDS011;66756;42.774;23.354;2023-07-02T00:39:23;15.52;;;3.28;;
77597;SDS011;66756;42.774;23.354;2023-07-02T00:41:49;12.25;;;2.63;;
77597;SDS011;66756;42.774;23.354;2023-07-02T00:44:15;13.45;;;2.63;;
77597;SDS011;66756;42.774;23.354;2023-07-02T00:46:42;12.98;;;2.78;;
77597;SDS011;66756;42.774;23.354;2023-07-02T00:49:08;12.10;;;2.78;;
77597;SDS011;66756;42.774;23.354;2023-07-02T00:51:35;9.43;;;3.05;;
77597;SDS011;66756;42.774;23.354;2023-07-02T00:54:02;7.57;;;2.80;;
77597;SDS011;66756;42.774;23.354;2023-07-02T00:56:28;9.38;;;3.00;;
77597;SDS011;66756;42.774;23.354;2023-07-02T00:58:55;6.65;;;2.35;;
77597;SDS011;66756;42.774;23.354;2023-07-02T01:01:24;9.95;;;3.00;;
77597;SDS011;66756;42.774;23.354;2023-07-02T01:03:54;7.82;;;2.78;;
77597;SDS011;66756;42.774;23.354;2023-07-02T01:08:50;5.82;;;2.67;;
77597;SDS011;66756;42.774;23.354;2023-07-02T01:11:16;9.80;;;2.95;;
77597;SDS011;66756;42.774;23.354;2023-07-02T01:13:43;8.73;;;3.05;;
77597;SDS011;66756;42.774;23.354;2023-07-02T01:16:09;7.72;;;2.83;;
77597;SDS011;66756;42.774;23.354;2023-07-02T01:18:35;9.05;;;3.30;;
77597;SDS011;66756;42.774;23.354;2023-07-02T01:21:03;7.50;;;3.70;;
77597;SDS011;66756;42.774;23.354;2023-07-02T01:23:32;8.35;;;2.88;;
77597;SDS011;66756;42.774;23.354;2023-07-02T01:25:58;7.32;;;2.97;;
77597;SDS011;66756;42.774;23.354;2023-07-02T01:28:25;5.43;;;2.95;;
77597;SDS011;66756;42.774;23.354;2023-07-02T01:30:51;8.13;;;2.60;;
77597;SDS011;66756;42.774;23.354;2023-07-02T01:33:17;6.32;;;3.80;;
77597;SDS011;66756;42.774;23.354;2023-07-02T01:35:43;7.35;;;2.72;;
77597;SDS011;66756;42.774;23.354;2023-07-02T01:38:09;4.68;;;2.03;;
77597;SDS011;66756;42.774;23.354;2023-07-02T01:40:35;5.85;;;2.38;;
77597;SDS011;66756;42.774;23.354;2023-07-02T01:43:01;4.95;;;2.00;;
77597;SDS011;66756;42.774;23.354;2023-07-02T01:45:27;6.05;;;2.15;;
77597;SDS011;66756;42.774;23.354;2023-07-02T01:47:53;5.22;;;2.85;;
77597;SDS011;66756;42.774;23.354;2023-07-02T01:50:19;6.68;;;2.75;;
77597;SDS011;66756;42.774;23.354;2023-07-02T01:52:46;5.85;;;2.63;;
77597;SDS011;66756;42.774;23.354;2023-07-02T01:55:12;5.90;;;2.55;;
77597;SDS011;66756;42.774;23.354;2023-07-02T01:57:38;7.25;;;2.78;;
77597;SDS011;66756;42.774;23.354;2023-07-02T02:00:04;5.88;;;2.70;;
77597;SDS011;66756;42.774;23.354;2023-07-02T02:02:31;5.65;;;2.05;;
77597;SDS011;66756;42.774;23.354;2023-07-02T02:04:58;6.65;;;2.65;;
77597;SDS011;66756;42.774;23.354;2023-07-02T02:07:24;6.07;;;3.17;;
77597;SDS011;66756;42.774;23.354;2023-07-02T02:09:50;5.65;;;2.90;;
77597;SDS011;66756;42.774;23.354;2023-07-02T02:12:16;5.82;;;2.45;;
77597;SDS011;66756;42.774;23.354;2023-07-02T02:14:42;6.47;;;2.53;;
77597;SDS011;66756;42.774;23.354;2023-07-02T02:17:08;6.82;;;2.97;;
77597;SDS011;66756;42.774;23.354;2023-07-02T02:19:34;5.72;;;2.72;;
77597;SDS011;66756;42.774;23.354;2023-07-02T02:22:00;8.43;;;2.80;;
77597;SDS011;66756;42.774;23.354;2023-07-02T02:24:26;7.28;;;3.15;;
77597;SDS011;66756;42.774;23.354;2023-07-02T02:26:53;8.48;;;2.70;;
77597;SDS011;66756;42.774;23.354;2023-07-02T02:29:19;6.50;;;2.78;;
77597;SDS011;66756;42.774;23.354;2023-07-02T02:31:45;6.95;;;3.20;;
77597;SDS011;66756;42.774;23.354;2023-07-02T02:34:11;5.97;;;2.55;;
77597;SDS011;66756;42.774;23.354;2023-07-02T02:36:37;7.75;;;2.58;;
77597;SDS011;66756;42.774;23.354;2023-07-02T02:39:03;8.90;;;3.58;;
77597;SDS011;66756;42.774;23.354;2023-07-02T02:41:30;7.85;;;3.10;;
77597;SDS011;66756;42.774;23.354;2023-07-02T02:43:56;8.07;;;2.42;;
77597;SDS011;66756;42.774;23.354;2023-07-02T02:46:22;6.05;;;2.75;;
77597;SDS011;66756;42.774;23.354;2023-07-02T02:48:49;8.48;;;2.97;;
77597;SDS011;66756;42.774;23.354;2023-07-02T02:51:15;6.30;;;2.78;;
77597;SDS011;66756;42.774;23.354;2023-07-02T02:53:41;6.32;;;2.58;;
77597;SDS011;66756;42.774;23.354;2023-07-02T02:56:07;5.60;;;2.58;;
77597;SDS011;66756;42.774;23.354;2023-07-02T02:58:33;8.75;;;3.10;;
77597;SDS011;66756;42.774;23.354;2023-07-02T03:00:59;8.25;;;5.93;;
77597;SDS011;66756;42.774;23.354;2023-07-02T03:03:25;8.60;;;4.80;;
77597;SDS011;66756;42.774;23.354;2023-07-02T03:05:51;10.38;;;4.25;;
77597;SDS011;66756;42.774;23.354;2023-07-02T03:08:17;10.27;;;4.85;;
77597;SDS011;66756;42.774;23.354;2023-07-02T03:10:43;8.70;;;4.43;;
77597;SDS011;66756;42.774;23.354;2023-07-02T03:13:09;6.45;;;4.05;;
77597;SDS011;66756;42.774;23.354;2023-07-02T03:15:35;9.27;;;4.80;;
77597;SDS011;66756;42.774;23.354;2023-07-02T03:18:01;8.75;;;3.95;;
77597;SDS011;66756;42.774;23.354;2023-07-02T03:20:27;7.82;;;3.95;;
77597;SDS011;66756;42.774;23.354;2023-07-02T03:22:53;6.32;;;3.58;;
77597;SDS011;66756;42.774;23.354;2023-07-02T03:25:19;5.85;;;3.45;;
77597;SDS011;66756;42.774;23.354;2023-07-02T03:27:45;7.50;;;3.65;;
77597;SDS011;66756;42.774;23.354;2023-07-02T03:30:11;11.43;;;4.15;;
77597;SDS011;66756;42.774;23.354;2023-07-02T03:32:39;9.55;;;4.03;;
77597;SDS011;66756;42.774;23.354;2023-07-02T03:35:05;10.27;;;3.78;;
77597;SDS011;66756;42.774;23.354;2023-07-02T03:37:31;9.60;;;3.47;;
77597;SDS011;66756;42.774;23.354;2023-07-02T03:39:57;8.65;;;3.58;;
77597;SDS011;66756;42.774;23.354;2023-07-02T03:42:23;8.45;;;3.33;;
77597;SDS011;66756;42.774;23.354;2023-07-02T03:44:49;11.50;;;3.92;;
77597;SDS011;66756;42.774;23.354;2023-07-02T03:47:15;10.38;;;4.10;;
77597;SDS011;66756;42.774;23.354;2023-07-02T03:49:44;8.65;;;3.72;;
77597;SDS011;66756;42.774;23.354;2023-07-02T03:52:10;9.23;;;3.60;;
77597;SDS011;66756;42.774;23.354;2023-07-02T03:54:36;7.18;;;3.35;;
77597;SDS011;66756;42.774;23.354;2023-07-02T04:00:06;9.57;;;4.50;;
77597;SDS011;66756;42.774;23.354;2023-07-02T04:02:32;8.77;;;4.13;;
77597;SDS011;66756;42.774;23.354;2023-07-02T04:04:58;9.20;;;3.55;;
77597;SDS011;66756;42.774;23.354;2023-07-02T04:07:24;10.15;;;4.32;;
77597;SDS011;66756;42.774;23.354;2023-07-02T04:09:50;10.38;;;4.63;;
77597;SDS011;66756;42.774;23.354;2023-07-02T04:12:16;8.27;;;4.15;;
77597;SDS011;66756;42.774;23.354;2023-07-02T04:14:42;10.35;;;4.72;;
77597;SDS011;66756;42.774;23.354;2023-07-02T04:17:08;9.05;;;3.92;;
77597;SDS011;66756;42.774;23.354;2023-07-02T04:19:34;9.75;;;3.78;;
77597;SDS011;66756;42.774;23.354;2023-07-02T04:22:00;11.35;;;4.30;;
77597;SDS011;66756;42.774;23.354;2023-07-02T04:24:27;9.07;;;3.92;;
77597;SDS011;66756;42.774;23.354;2023-07-02T04:26:53;9.60;;;4.50;;
77597;SDS011;66756;42.774;23.354;2023-07-02T04:29:19;10.73;;;4.13;;
77597;SDS011;66756;42.774;23.354;2023-07-02T04:31:46;7.80;;;4.65;;
77597;SDS011;66756;42.774;23.354;2023-07-02T04:34:12;8.73;;;3.83;;
77597;SDS011;66756;42.774;23.354;2023-07-02T04:36:38;9.27;;;5.05;;
77597;SDS011;66756;42.774;23.354;2023-07-02T04:39:04;9.43;;;4.78;;
77597;SDS011;66756;42.774;23.354;2023-07-02T04:41:30;9.15;;;4.18;;
77597;SDS011;66756;42.774;23.354;2023-07-02T04:43:57;11.20;;;4.85;;
77597;SDS011;66756;42.774;23.354;2023-07-02T04:46:23;13.50;;;5.18;;
77597;SDS011;66756;42.774;23.354;2023-07-02T04:48:50;10.57;;;5.03;;
77597;SDS011;66756;42.774;23.354;2023-07-02T04:51:16;8.98;;;4.55;;
77597;SDS011;66756;42.774;23.354;2023-07-02T04:53:42;8.52;;;4.55;;
77597;SDS011;66756;42.774;23.354;2023-07-02T04:56:08;9.77;;;5.15;;
77597;SDS011;66756;42.774;23.354;2023-07-02T04:58:34;11.63;;;5.30;;
77597;SDS011;66756;42.774;23.354;2023-07-02T05:01:00;10.52;;;5.28;;
77597;SDS011;66756;42.774;23.354;2023-07-02T05:03:26;11.45;;;5.05;;
77597;SDS011;66756;42.774;23.354;2023-07-02T05:05:52;9.98;;;4.57;;
77597;SDS011;66756;42.774;23.354;2023-07-02T05:08:18;8.40;;;4.40;;
77597;SDS011;66756;42.774;23.354;2023-07-02T05:10:44;8.77;;;5.32;;
77597;SDS011;66756;42.774;23.354;2023-07-02T05:13:10;11.10;;;5.32;;
77597;SDS011;66756;42.774;23.354;2023-07-02T05:15:36;10.07;;;5.03;;
77597;SDS011;66756;42.774;23.354;2023-07-02T05:18:02;10.18;;;5.22;;
77597;SDS011;66756;42.774;23.354;2023-07-02T05:20:28;9.43;;;5.25;;
77597;SDS011;66756;42.774;23.354;2023-07-02T05:22:54;9.40;;;5.20;;
77597;SDS011;66756;42.774;23.354;2023-07-02T05:25:20;11.00;;;4.70;;
77597;SDS011;66756;42.774;23.354;2023-07-02T05:27:46;11.57;;;5.38;;
77597;SDS011;66756;42.774;23.354;2023-07-02T05:30:12;8.80;;;5.53;;
77597;SDS011;66756;42.774;23.354;2023-07-02T05:32:38;14.23;;;6.22;;
77597;SDS011;66756;42.774;23.354;2023-07-02T05:35:05;11.55;;;5.65;;
77597;SDS011;66756;42.774;23.354;2023-07-02T05:37:31;13.43;;;5.70;;
77597;SDS011;66756;42.774;23.354;2023-07-02T05:39:57;9.13;;;5.30;;
77597;SDS011;66756;42.774;23.354;2023-07-02T05:42:23;12.25;;;5.97;;
77597;SDS011;66756;42.774;23.354;2023-07-02T05:44:49;11.15;;;5.55;;
77597;SDS011;66756;42.774;23.354;2023-07-02T05:47:15;9.40;;;5.70;;
77597;SDS011;66756;42.774;23.354;2023-07-02T05:49:42;9.68;;;4.70;;
77597;SDS011;66756;42.774;23.354;2023-07-02T05:52:08;11.23;;;6.03;;
77597;SDS011;66756;42.774;23.354;2023-07-02T05:54:34;10.85;;;5.75;;
77597;SDS011;66756;42.774;23.354;2023-07-02T05:57:00;9.25;;;5.68;;
77597;SDS011;66756;42.774;23.354;2023-07-02T05:59:26;11.80;;;5.80;;
77597;SDS011;66756;42.774;23.354;2023-07-02T06:01:52;10.18;;;5.07;;
77597;SDS011;66756;42.774;23.354;2023-07-02T06:04:18;8.85;;;4.68;;
77597;SDS011;66756;42.774;23.354;2023-07-02T06:06:44;9.27;;;5.10;;
77597;SDS011;66756;42.774;23.354;2023-07-02T06:09:10;9.27;;;5.05;;
77597;SDS011;66756;42.774;23.354;2023-07-02T06:11:36;10.30;;;4.78;;
77597;SDS011;66756;42.774;23.354;2023-07-02T06:14:03;15.35;;;7.13;;
77597;SDS011;66756;42.774;23.354;2023-07-02T06:16:29;12.63;;;6.70;;
77597;SDS011;66756;42.774;23.354;2023-07-02T06:18:55;17.73;;;9.15;;
77597;SDS011;66756;42.774;23.354;2023-07-02T06:21:21;14.65;;;8.63;;
77597;SDS011;66756;42.774;23.354;2023-07-02T06:23:47;11.23;;;7.07;;
77597;SDS011;66756;42.774;23.354;2023-07-02T06:26:13;15.43;;;7.40;;
77597;SDS011;66756;42.774;23.354;2023-07-02T06:28:39;14.63;;;6.65;;
77597;SDS011;66756;42.774;23.354;2023-07-02T06:31:05;12.90;;;6.07;;
77597;SDS011;66756;42.774;23.354;2023-07-02T06:33:32;14.38;;;7.05;;
77597;SDS011;66756;42.774;23.354;2023-07-02T06:35:58;11.77;;;5.65;;
77597;SDS011;66756;42.774;23.354;2023-07-02T06:38:24;11.07;;;5.22;;
77597;SDS011;66756;42.774;23.354;2023-07-02T06:40:50;12.90;;;5.78;;
77597;SDS011;66756;42.774;23.354;2023-07-02T06:43:16;8.57;;;4.35;;
77597;SDS011;66756;42.774;23.354;2023-07-02T06:45:42;12.57;;;5.55;;
77597;SDS011;66756;42.774;23.354;2023-07-02T06:48:08;10.68;;;5.32;;
77597;SDS011;66756;42.774;23.354;2023-07-02T06:50:34;10.77;;;4.50;;
77597;SDS011;66756;42.774;23.354;2023-07-02T06:53:00;10.25;;;4.65;;
77597;SDS011;66756;42.774;23.354;2023-07-02T06:55:26;7.88;;;4.40;;
77597;SDS011;66756;42.774;23.354;2023-07-02T06:57:52;9.10;;;4.80;;
77597;SDS011;66756;42.774;23.354;2023-07-02T07:00:18;12.73;;;5.95;;
77597;SDS011;66756;42.774;23.354;2023-07-02T07:02:44;7.53;;;4.15;;
77597;SDS011;66756;42.774;23.354;2023-07-02T07:05:10;8.40;;;3.83;;
77597;SDS011;66756;42.774;23.354;2023-07-02T07:07:37;6.65;;;4.00;;
77597;SDS011;66756;42.774;23.354;2023-07-02T07:10:03;9.20;;;4.72;;
77597;SDS011;66756;42.774;23.354;2023-07-02T07:12:29;8.32;;;4.00;;
77597;SDS011;66756;42.774;23.354;2023-07-02T07:14:55;6.82;;;3.42;;
77597;SDS011;66756;42.774;23.354;2023-07-02T07:17:21;8.98;;;3.67;;
77597;SDS011;66756;42.774;23.354;2023-07-02T07:19:47;8.25;;;4.35;;
77597;SDS011;66756;42.774;23.354;2023-07-02T07:22:13;8.77;;;3.95;;
77597;SDS011;66756;42.774;23.354;2023-07-02T07:24:41;8.07;;;4.25;;
77597;SDS011;66756;42.774;23.354;2023-07-02T07:27:07;6.60;;;3.58;;
77597;SDS011;66756;42.774;23.354;2023-07-02T07:29:33;6.38;;;3.28;;
77597;SDS011;66756;42.774;23.354;2023-07-02T07:31:59;8.13;;;4.57;;
77597;SDS011;66756;42.774;23.354;2023-07-02T07:34:25;6.63;;;3.28;;
77597;SDS011;66756;42.774;23.354;2023-07-02T07:36:51;6.10;;;3.30;;
77597;SDS011;66756;42.774;23.354;2023-07-02T07:39:18;5.93;;;3.35;;
77597;SDS011;66756;42.774;23.354;2023-07-02T07:41:47;7.47;;;3.30;;
77597;SDS011;66756;42.774;23.354;2023-07-02T07:44:13;6.40;;;3.65;;
77597;SDS011;66756;42.774;23.354;2023-07-02T07:46:39;6.38;;;3.58;;
77597;SDS011;66756;42.774;23.354;2023-07-02T07:49:06;9.07;;;4.65;;
77597;SDS011;66756;42.774;23.354;2023-07-02T07:51:32;8.80;;;5.05;;
77597;SDS011;66756;42.774;23.354;2023-07-02T07:54:00;7.47;;;3.88;;
77597;SDS011;66756;42.774;23.354;2023-07-02T07:56:26;7.50;;;4.43;;
77597;SDS011;66756;42.774;23.354;2023-07-02T07:58:52;8.65;;;3.45;;
77597;SDS011;66756;42.774;23.354;2023-07-02T08:01:18;7.35;;;3.42;;
77597;SDS011;66756;42.774;23.354;2023-07-02T08:03:45;9.45;;;4.50;;
77597;SDS011;66756;42.774;23.354;2023-07-02T08:06:11;8.32;;;4.07;;
77597;SDS011;66756;42.774;23.354;2023-07-02T08:08:37;8.18;;;4.43;;
77597;SDS011;66756;42.774;23.354;2023-07-02T08:11:03;9.50;;;4.85;;
77597;SDS011;66756;42.774;23.354;2023-07-02T08:13:29;9.00;;;4.78;;
77597;SDS011;66756;42.774;23.354;2023-07-02T08:15:55;7.85;;;4.25;;
77597;SDS011;66756;42.774;23.354;2023-07-02T08:18:21;9.27;;;4.38;;
77597;SDS011;66756;42.774;23.354;2023-07-02T08:20:47;8.50;;;4.93;;
77597;SDS011;66756;42.774;23.354;2023-07-02T08:23:13;10.18;;;4.63;;
77597;SDS011;66756;42.774;23.354;2023-07-02T08:25:39;8.63;;;4.35;;
77597;SDS011;66756;42.774;23.354;2023-07-02T08:28:05;8.88;;;4.85;;
77597;SDS011;66756;42.774;23.354;2023-07-02T08:30:31;8.70;;;4.63;;
77597;SDS011;66756;42.774;23.354;2023-07-02T08:32:57;9.10;;;5.10;;
77597;SDS011;66756;42.774;23.354;2023-07-02T08:35:23;8.70;;;4.72;;
77597;SDS011;66756;42.774;23.354;2023-07-02T08:37:49;11.05;;;4.97;;
77597;SDS011;66756;42.774;23.354;2023-07-02T08:40:16;9.82;;;5.10;;
77597;SDS011;66756;42.774;23.354;2023-07-02T08:42:43;8.77;;;6.13;;
77597;SDS011;66756;42.774;23.354;2023-07-02T08:45:09;9.90;;;5.20;;
77597;SDS011;66756;42.774;23.354;2023-07-02T08:47:35;9.77;;;4.07;;
77597;SDS011;66756;42.774;23.354;2023-07-02T08:50:02;14.38;;;6.22;;
77597;SDS011;66756;42.774;23.354;2023-07-02T08:52:30;9.68;;;5.47;;
77597;SDS011;66756;42.774;23.354;2023-07-02T08:54:56;9.60;;;5.88;;
77597;SDS011;66756;42.774;23.354;2023-07-02T08:57:22;10.52;;;5.97;;
77597;SDS011;66756;42.774;23.354;2023-07-02T08:59:48;9.65;;;5.88;;
77597;SDS011;66756;42.774;23.354;2023-07-02T09:02:16;11.27;;;5.55;;
77597;SDS011;66756;42.774;23.354;2023-07-02T09:04:42;9.25;;;5.57;;
77597;SDS011;66756;42.774;23.354;2023-07-02T09:07:09;8.80;;;5.55;;
77597;SDS011;66756;42.774;23.354;2023-07-02T09:09:47;10.45;;;5.80;;
77597;SDS011;66756;42.774;23.354;2023-07-02T09:12:27;9.60;;;4.80;;
77597;SDS011;66756;42.774;23.354;2023-07-02T09:14:54;8.48;;;5.80;;
77597;SDS011;66756;42.774;23.354;2023-07-02T09:17:20;8.63;;;4.47;;
77597;SDS011;66756;42.774;23.354;2023-07-02T09:19:50;7.55;;;4.88;;
77597;SDS011;66756;42.774;23.354;2023-07-02T09:22:16;9.63;;;4.70;;
77597;SDS011;66756;42.774;23.354;2023-07-02T09:24:50;11.32;;;4.55;;
77597;SDS011;66756;42.774;23.354;2023-07-02T09:27:18;7.90;;;4.35;;
77597;SDS011;66756;42.774;23.354;2023-07-02T09:29:49;7.88;;;4.28;;
77597;SDS011;66756;42.774;23.354;2023-07-02T09:32:23;8.82;;;4.80;;
77597;SDS011;66756;42.774;23.354;2023-07-02T09:34:49;9.60;;;4.78;;
77597;SDS011;66756;42.774;23.354;2023-07-02T09:37:15;7.68;;;4.35;;
77597;SDS011;66756;42.774;23.354;2023-07-02T09:39:41;12.70;;;4.90;;
77597;SDS011;66756;42.774;23.354;2023-07-02T09:42:08;9.95;;;5.20;;
77597;SDS011;66756;42.774;23.354;2023-07-02T09:44:35;6.88;;;4.25;;
77597;SDS011;66756;42.774;23.354;2023-07-02T09:47:08;8.02;;;4.03;;
77597;SDS011;66756;42.774;23.354;2023-07-02T09:49:39;6.80;;;4.32;;
77597;SDS011;66756;42.774;23.354;2023-07-02T09:52:07;7.30;;;3.97;;
77597;SDS011;66756;42.774;23.354;2023-07-02T09:54:33;6.88;;;3.55;;
77597;SDS011;66756;42.774;23.354;2023-07-02T09:57:00;7.18;;;3.33;;
77597;SDS011;66756;42.774;23.354;2023-07-02T09:59:26;7.35;;;4.05;;
77597;SDS011;66756;42.774;23.354;2023-07-02T10:01:52;6.97;;;4.13;;
77597;SDS011;66756;42.774;23.354;2023-07-02T10:04:19;8.55;;;3.47;;
77597;SDS011;66756;42.774;23.354;2023-07-02T10:06:49;7.82;;;4.30;;
77597;SDS011;66756;42.774;23.354;2023-07-02T10:09:16;5.88;;;3.65;;
77597;SDS011;66756;42.774;23.354;2023-07-02T10:11:42;8.85;;;4.53;;
77597;SDS011;66756;42.774;23.354;2023-07-02T10:14:08;7.43;;;4.35;;
77597;SDS011;66756;42.774;23.354;2023-07-02T10:16:34;7.82;;;4.40;;
77597;SDS011;66756;42.774;23.354;2023-07-02T10:19:12;7.75;;;4.38;;
77597;SDS011;66756;42.774;23.354;2023-07-02T10:21:38;6.65;;;3.67;;
77597;SDS011;66756;42.774;23.354;2023-07-02T10:26:37;6.25;;;4.05;;
77597;SDS011;66756;42.774;23.354;2023-07-02T10:29:03;5.97;;;3.65;;
77597;SDS011;66756;42.774;23.354;2023-07-02T10:31:29;7.93;;;4.25;;
77597;SDS011;66756;42.774;23.354;2023-07-02T10:33:55;7.40;;;2.97;;
77597;SDS011;66756;42.774;23.354;2023-07-02T10:36:22;5.95;;;3.47;;
77597;SDS011;66756;42.774;23.354;2023-07-02T10:38:49;6.35;;;3.30;;
77597;SDS011;66756;42.774;23.354;2023-07-02T10:43:50;6.82;;;4.15;;
77597;SDS011;66756;42.774;23.354;2023-07-02T10:46:20;7.35;;;4.03;;
77597;SDS011;66756;42.774;23.354;2023-07-02T10:48:56;8.02;;;4.18;;
77597;SDS011;66756;42.774;23.354;2023-07-02T10:51:22;6.15;;;3.90;;
77597;SDS011;66756;42.774;23.354;2023-07-02T10:53:59;6.22;;;3.60;;
77597;SDS011;66756;42.774;23.354;2023-07-02T10:56:26;6.20;;;3.63;;
77597;SDS011;66756;42.774;23.354;2023-07-02T10:58:53;8.20;;;3.78;;
77597;SDS011;66756;42.774;23.354;2023-07-02T11:01:23;5.43;;;3.33;;
77597;SDS011;66756;42.774;23.354;2023-07-02T11:03:56;7.25;;;4.70;;
77597;SDS011;66756;42.774;23.354;2023-07-02T11:06:23;6.78;;;3.55;;
77597;SDS011;66756;42.774;23.354;2023-07-02T11:08:49;6.75;;;3.97;;
77597;SDS011;66756;42.774;23.354;2023-07-02T11:11:15;6.22;;;3.28;;
77597;SDS011;66756;42.774;23.354;2023-07-02T11:13:44;7.25;;;3.80;;
77597;SDS011;66756;42.774;23.354;2023-07-02T11:16:21;5.35;;;3.38;;
77597;SDS011;66756;42.774;23.354;2023-07-02T11:18:50;6.95;;;3.97;;
77597;SDS011;66756;42.774;23.354;2023-07-02T11:21:17;6.10;;;3.22;;
77597;SDS011;66756;42.774;23.354;2023-07-02T11:23:43;5.60;;;4.07;;
77597;SDS011;66756;42.774;23.354;2023-07-02T11:26:09;5.47;;;2.85;;
77597;SDS011;66756;42.774;23.354;2023-07-02T11:28:35;8.60;;;3.03;;
77597;SDS011;66756;42.774;23.354;2023-07-02T11:31:02;6.72;;;2.78;;
77597;SDS011;66756;42.774;23.354;2023-07-02T11:33:37;6.15;;;2.97;;
77597;SDS011;66756;42.774;23.354;2023-07-02T11:36:03;6.78;;;2.80;;
77597;SDS011;66756;42.774;23.354;2023-07-02T11:38:29;5.60;;;3.28;;
77597;SDS011;66756;42.774;23.354;2023-07-02T11:40:55;6.65;;;2.65;;
77597;SDS011;66756;42.774;23.354;2023-07-02T11:43:22;5.40;;;2.58;;
77597;SDS011;66756;42.774;23.354;2023-07-02T11:45:48;6.40;;;2.95;;
77597;SDS011;66756;42.774;23.354;2023-07-02T11:48:14;5.63;;;2.83;;
77597;SDS011;66756;42.774;23.354;2023-07-02T11:50:40;5.93;;;2.25;;
77597;SDS011;66756;42.774;23.354;2023-07-02T11:53:06;4.90;;;2.55;;
77597;SDS011;66756;42.774;23.354;2023-07-02T11:55:32;5.22;;;2.80;;
77597;SDS011;66756;42.774;23.354;2023-07-02T11:57:58;5.40;;;3.00;;
77597;SDS011;66756;42.774;23.354;2023-07-02T12:00:24;5.57;;;3.05;;
77597;SDS011;66756;42.774;23.354;2023-07-02T12:02:52;5.50;;;2.47;;
77597;SDS011;66756;42.774;23.354;2023-07-02T12:05:18;5.10;;;2.63;;
77597;SDS011;66756;42.774;23.354;2023-07-02T12:07:44;5.75;;;3.10;;
77597;SDS011;66756;42.774;23.354;2023-07-02T12:10:10;6.13;;;3.10;;
77597;SDS011;66756;42.774;23.354;2023-07-02T12:12:36;5.38;;;2.33;;
77597;SDS011;66756;42.774;23.354;2023-07-02T12:15:02;5.43;;;2.83;;
77597;SDS011;66756;42.774;23.354;2023-07-02T12:17:28;4.90;;;2.28;;
77597;SDS011;66756;42.774;23.354;2023-07-02T12:19:54;4.25;;;2.25;;
77597;SDS011;66756;42.774;23.354;2023-07-02T12:22:20;4.80;;;2.45;;
77597;SDS011;66756;42.774;23.354;2023-07-02T12:24:47;5.68;;;2.58;;
77597;SDS011;66756;42.774;23.354;2023-07-02T12:27:15;4.68;;;2.10;;
77597;SDS011;66756;42.774;23.354;2023-07-02T12:29:41;5.93;;;2.22;;
77597;SDS011;66756;42.774;23.354;2023-07-02T12:32:07;5.80;;;2.28;;
77597;SDS011;66756;42.774;23.354;2023-07-02T12:34:33;4.47;;;2.38;;
77597;SDS011;66756;42.774;23.354;2023-07-02T12:36:59;5.45;;;2.08;;
77597;SDS011;66756;42.774;23.354;2023-07-02T12:39:25;4.60;;;2.58;;
77597;SDS011;66756;42.774;23.354;2023-07-02T12:41:52;4.82;;;2.05;;
77597;SDS011;66756;42.774;23.354;2023-07-02T12:44:18;4.25;;;2.05;;
77597;SDS011;66756;42.774;23.354;2023-07-02T12:46:44;4.72;;;2.25;;
77597;SDS011;66756;42.774;23.354;2023-07-02T12:49:10;4.95;;;2.45;;
77597;SDS011;66756;42.774;23.354;2023-07-02T12:51:36;5.22;;;2.88;;
77597;SDS011;66756;42.774;23.354;2023-07-02T12:54:02;6.38;;;2.95;;
77597;SDS011;66756;42.774;23.354;2023-07-02T12:56:28;5.05;;;2.78;;
77597;SDS011;66756;42.774;23.354;2023-07-02T12:58:54;5.28;;;3.28;;
77597;SDS011;66756;42.774;23.354;2023-07-02T13:01:20;5.70;;;3.10;;
77597;SDS011;66756;42.774;23.354;2023-07-02T13:03:46;6.22;;;3.67;;
77597;SDS011;66756;42.774;23.354;2023-07-02T13:06:13;4.75;;;3.25;;
77597;SDS011;66756;42.774;23.354;2023-07-02T13:08:39;6.15;;;4.28;;
77597;SDS011;66756;42.774;23.354;2023-07-02T13:11:05;6.20;;;4.25;;
77597;SDS011;66756;42.774;23.354;2023-07-02T13:13:31;6.25;;;5.00;;
77597;SDS011;66756;42.774;23.354;2023-07-02T13:15:57;6.30;;;3.75;;
77597;SDS011;66756;42.774;23.354;2023-07-02T13:18:24;5.93;;;4.18;;
77597;SDS011;66756;42.774;23.354;2023-07-02T13:20:50;5.35;;;2.95;;
77597;SDS011;66756;42.774;23.354;2023-07-02T13:23:16;4.97;;;3.05;;
77597;SDS011;66756;42.774;23.354;2023-07-02T13:25:42;6.60;;;2.97;;
77597;SDS011;66756;42.774;23.354;2023-07-02T13:28:08;6.75;;;4.03;;
77597;SDS011;66756;42.774;23.354;2023-07-02T13:30:34;6.43;;;3.88;;
77597;SDS011;66756;42.774;23.354;2023-07-02T13:33:00;5.82;;;3.65;;
77597;SDS011;66756;42.774;23.354;2023-07-02T13:35:27;4.93;;;3.10;;
77597;SDS011;66756;42.774;23.354;2023-07-02T13:37:52;4.95;;;2.80;;
77597;SDS011;66756;42.774;23.354;2023-07-02T13:40:19;4.80;;;2.70;;
77597;SDS011;66756;42.774;23.354;2023-07-02T13:42:45;6.20;;;3.08;;
77597;SDS011;66756;42.774;23.354;2023-07-02T13:45:12;5.07;;;2.78;;
77597;SDS011;66756;42.774;23.354;2023-07-02T13:47:38;4.93;;;2.70;;
77597;SDS011;66756;42.774;23.354;2023-07-02T13:50:04;6.00;;;2.83;;
77597;SDS011;66756;42.774;23.354;2023-07-02T13:52:30;5.65;;;3.10;;
77597;SDS011;66756;42.774;23.354;2023-07-02T13:54:56;5.65;;;2.95;;
77597;SDS011;66756;42.774;23.354;2023-07-02T13:57:24;6.38;;;2.65;;
77597;SDS011;66756;42.774;23.354;2023-07-02T13:59:50;6.80;;;3.22;;
77597;SDS011;66756;42.774;23.354;2023-07-02T14:02:16;7.75;;;3.40;;
77597;SDS011;66756;42.774;23.354;2023-07-02T14:04:43;6.30;;;3.30;;
77597;SDS011;66756;42.774;23.354;2023-07-02T14:07:09;6.03;;;2.97;;
77597;SDS011;66756;42.774;23.354;2023-07-02T14:09:35;6.95;;;3.00;;
77597;SDS011;66756;42.774;23.354;2023-07-02T14:12:02;6.03;;;3.13;;
77597;SDS011;66756;42.774;23.354;2023-07-02T14:14:28;5.53;;;3.22;;
77597;SDS011;66756;42.774;23.354;2023-07-02T14:16:54;6.72;;;2.75;;
77597;SDS011;66756;42.774;23.354;2023-07-02T14:19:20;4.88;;;2.45;;
77597;SDS011;66756;42.774;23.354;2023-07-02T14:21:46;6.20;;;3.08;;
77597;SDS011;66756;42.774;23.354;2023-07-02T14:24:14;4.20;;;2.75;;
77597;SDS011;66756;42.774;23.354;2023-07-02T14:26:40;7.03;;;3.72;;
77597;SDS011;66756;42.774;23.354;2023-07-02T14:29:08;5.20;;;3.20;;
77597;SDS011;66756;42.774;23.354;2023-07-02T14:31:34;5.65;;;2.90;;
77597;SDS011;66756;42.774;23.354;2023-07-02T14:34:00;6.10;;;3.03;;
77597;SDS011;66756;42.774;23.354;2023-07-02T14:36:26;4.88;;;2.47;;
77597;SDS011;66756;42.774;23.354;2023-07-02T14:38:52;5.65;;;3.45;;